sensor_id;sensor_type;location;lat;lon;timestamp;temperature;humidity
25192;DHT22;13143;50.924;5.320;2023-07-28T00:02:13;19.10;99.90
25192;DHT22;13143;50.924;5.320;2023-07-28T00:04:39;19.10;99.90
25192;DHT22;13143;50.924;5.320;2023-07-28T00:07:05;19.10;99.90
25192;DHT22;13143;50.924;5.320;2023-07-28T00:09:32;19.10;99.90
25192;DHT22;13143;50.924;5.320;2023-07-28T00:11:58;19.10;99.90
25192;DHT22;13143;50.924;5.320;2023-07-28T00:14:25;19.10;99.90
25192;DHT22;13143;50.924;5.320;2023-07-28T00:16:52;19.10;99.90
25192;DHT22;13143;50.924;5.320;2023-07-28T00:19:19;19.10;99.90
25192;DHT22;13143;50.924;5.320;2023-07-28T00:21:50;19.10;99.90
25192;DHT22;13143;50.924;5.320;2023-07-28T00:24:17;19.10;99.90
25192;DHT22;13143;50.924;5.320;2023-07-28T00:26:43;19.10;99.90
25192;DHT22;13143;50.924;5.320;2023-07-28T00:29:10;19.10;99.90
25192;DHT22;13143;50.924;5.320;2023-07-28T00:31:36;19.10;99.90
25192;DHT22;13143;50.924;5.320;2023-07-28T00:34:03;19.10;99.90
25192;DHT22;13143;50.924;5.320;2023-07-28T00:36:30;19.10;99.90
25192;DHT22;13143;50.924;5.320;2023-07-28T00:38:57;19.10;99.90
25192;DHT22;13143;50.924;5.320;2023-07-28T00:41:23;19.10;99.90
25192;DHT22;13143;50.924;5.320;2023-07-28T00:43:50;19.10;99.90
25192;DHT22;13143;50.924;5.320;2023-07-28T00:46:16;19.10;99.90
25192;DHT22;13143;50.924;5.320;2023-07-28T00:48:43;19.10;99.90
25192;DHT22;13143;50.924;5.320;2023-07-28T00:51:10;19.10;99.90
25192;DHT22;13143;50.924;5.320;2023-07-28T00:53:37;19.10;99.90
25192;DHT22;13143;50.924;5.320;2023-07-28T00:56:04;19.10;99.90
25192;DHT22;13143;50.924;5.320;2023-07-28T00:58:31;19.10;99.90
25192;DHT22;13143;50.924;5.320;2023-07-28T01:00:58;19.10;99.90
25192;DHT22;13143;50.924;5.320;2023-07-28T01:03:24;19.10;99.90
25192;DHT22;13143;50.924;5.320;2023-07-28T01:06:35;19.10;99.90
25192;DHT22;13143;50.924;5.320;2023-07-28T01:09:03;19.10;99.90
25192;DHT22;13143;50.924;5.320;2023-07-28T01:11:32;19.10;99.90
25192;DHT22;13143;50.924;5.320;2023-07-28T01:13:58;19.10;99.90
25192;DHT22;13143;50.924;5.320;2023-07-28T01:16:24;19.10;99.90
25192;DHT22;13143;50.924;5.320;2023-07-28T01:18:50;19.10;99.90
25192;DHT22;13143;50.924;5.320;2023-07-28T01:21:20;19.10;99.90
25192;DHT22;13143;50.924;5.320;2023-07-28T01:26:34;19.10;99.90
25192;DHT22;13143;50.924;5.320;2023-07-28T01:29:02;19.10;99.90
25192;DHT22;13143;50.924;5.320;2023-07-28T01:31:29;19.10;99.90
25192;DHT22;13143;50.924;5.320;2023-07-28T01:33:55;19.10;99.90
25192;DHT22;13143;50.924;5.320;2023-07-28T01:36:21;19.10;99.90
25192;DHT22;13143;50.924;5.320;2023-07-28T01:38:48;19.10;99.90
25192;DHT22;13143;50.924;5.320;2023-07-28T01:41:14;19.10;99.90
25192;DHT22;13143;50.924;5.320;2023-07-28T01:43:40;19.10;99.90
25192;DHT22;13143;50.924;5.320;2023-07-28T01:46:07;19.10;99.90
25192;DHT22;13143;50.924;5.320;2023-07-28T01:48:34;19.10;99.90
25192;DHT22;13143;50.924;5.320;2023-07-28T01:51:00;19.10;99.90
25192;DHT22;13143;50.924;5.320;2023-07-28T01:53:26;19.10;99.90
25192;DHT22;13143;50.924;5.320;2023-07-28T01:55:52;19.10;99.90
25192;DHT22;13143;50.924;5.320;2023-07-28T01:58:18;19.10;99.90
25192;DHT22;13143;50.924;5.320;2023-07-28T02:00:44;19.10;99.90
25192;DHT22;13143;50.924;5.320;2023-07-28T02:03:12;19.10;99.90
25192;DHT22;13143;50.924;5.320;2023-07-28T02:05:38;19.10;99.90
25192;DHT22;13143;50.924;5.320;2023-07-28T02:08:04;19.10;99.90
25192;DHT22;13143;50.924;5.320;2023-07-28T02:10:30;19.10;99.90
25192;DHT22;13143;50.924;5.320;2023-07-28T02:12:56;19.10;99.90
25192;DHT22;13143;50.924;5.320;2023-07-28T02:15:23;19.10;99.90
25192;DHT22;13143;50.924;5.320;2023-07-28T02:17:49;19.10;99.90
25192;DHT22;13143;50.924;5.320;2023-07-28T02:20:15;19.10;99.90
25192;DHT22;13143;50.924;5.320;2023-07-28T02:22:44;19.10;99.90
25192;DHT22;13143;50.924;5.320;2023-07-28T02:25:10;19.10;99.90
25192;DHT22;13143;50.924;5.320;2023-07-28T02:27:39;19.10;99.90
25192;DHT22;13143;50.924;5.320;2023-07-28T02:30:06;19.10;99.90
25192;DHT22;13143;50.924;5.320;2023-07-28T02:32:33;19.10;99.90
25192;DHT22;13143;50.924;5.320;2023-07-28T02:34:59;19.10;99.90
25192;DHT22;13143;50.924;5.320;2023-07-28T02:37:25;19.10;99.90
25192;DHT22;13143;50.924;5.320;2023-07-28T02:39:51;19.10;99.90
25192;DHT22;13143;50.924;5.320;2023-07-28T02:42:17;19.10;99.90
25192;DHT22;13143;50.924;5.320;2023-07-28T02:44:44;19.10;99.90
25192;DHT22;13143;50.924;5.320;2023-07-28T02:47:10;19.10;99.90
25192;DHT22;13143;50.924;5.320;2023-07-28T02:49:36;19.10;99.90
25192;DHT22;13143;50.924;5.320;2023-07-28T02:52:03;19.10;99.90
25192;DHT22;13143;50.924;5.320;2023-07-28T02:54:29;19.10;99.90
25192;DHT22;13143;50.924;5.320;2023-07-28T02:56:55;19.10;99.90
25192;DHT22;13143;50.924;5.320;2023-07-28T02:59:21;19.10;99.90
25192;DHT22;13143;50.924;5.320;2023-07-28T03:01:49;19.00;99.90
25192;DHT22;13143;50.924;5.320;2023-07-28T03:04:18;19.10;99.90
25192;DHT22;13143;50.924;5.320;2023-07-28T03:06:46;19.10;99.90
25192;DHT22;13143;50.924;5.320;2023-07-28T03:09:13;19.10;99.90
25192;DHT22;13143;50.924;5.320;2023-07-28T03:11:40;19.10;99.90
25192;DHT22;13143;50.924;5.320;2023-07-28T03:14:06;19.10;99.90
25192;DHT22;13143;50.924;5.320;2023-07-28T03:16:32;19.00;99.90
25192;DHT22;13143;50.924;5.320;2023-07-28T03:18:58;19.00;99.90
25192;DHT22;13143;50.924;5.320;2023-07-28T03:21:24;19.10;99.90
25192;DHT22;13143;50.924;5.320;2023-07-28T03:23:50;19.10;99.90
25192;DHT22;13143;50.924;5.320;2023-07-28T03:26:16;19.10;99.90
25192;DHT22;13143;50.924;5.320;2023-07-28T03:28:43;19.10;99.90
25192;DHT22;13143;50.924;5.320;2023-07-28T03:31:09;19.10;99.90
25192;DHT22;13143;50.924;5.320;2023-07-28T03:33:35;19.10;99.90
25192;DHT22;13143;50.924;5.320;2023-07-28T03:36:01;19.10;99.90
25192;DHT22;13143;50.924;5.320;2023-07-28T03:38:27;19.10;99.90
25192;DHT22;13143;50.924;5.320;2023-07-28T03:40:53;19.10;99.90
25192;DHT22;13143;50.924;5.320;2023-07-28T03:43:20;19.10;99.90
25192;DHT22;13143;50.924;5.320;2023-07-28T03:45:47;19.00;99.90
25192;DHT22;13143;50.924;5.320;2023-07-28T03:48:13;19.00;99.90
25192;DHT22;13143;50.924;5.320;2023-07-28T03:50:39;19.10;99.90
25192;DHT22;13143;50.924;5.320;2023-07-28T03:53:05;19.10;99.90
25192;DHT22;13143;50.924;5.320;2023-07-28T03:55:32;19.10;99.90
25192;DHT22;13143;50.924;5.320;2023-07-28T03:57:58;19.10;99.90
25192;DHT22;13143;50.924;5.320;2023-07-28T04:00:24;19.10;99.90
25192;DHT22;13143;50.924;5.320;2023-07-28T04:02:50;19.10;99.90
25192;DHT22;13143;50.924;5.320;2023-07-28T04:05:16;19.10;99.90
25192;DHT22;13143;50.924;5.320;2023-07-28T04:07:42;19.10;99.90
25192;DHT22;13143;50.924;5.320;2023-07-28T04:10:08;19.10;99.90
25192;DHT22;13143;50.924;5.320;2023-07-28T04:12:35;19.10;99.90
25192;DHT22;13143;50.924;5.320;2023-07-28T04:15:01;19.10;99.90
25192;DHT22;13143;50.924;5.320;2023-07-28T04:17:27;19.10;99.90
25192;DHT22;13143;50.924;5.320;2023-07-28T04:19:53;19.10;99.90
25192;DHT22;13143;50.924;5.320;2023-07-28T04:22:19;19.10;99.90
25192;DHT22;13143;50.924;5.320;2023-07-28T04:24:47;19.10;99.90
25192;DHT22;13143;50.924;5.320;2023-07-28T04:27:14;19.10;99.90
25192;DHT22;13143;50.924;5.320;2023-07-28T04:29:40;19.10;99.90
25192;DHT22;13143;50.924;5.320;2023-07-28T04:32:07;19.10;99.90
25192;DHT22;13143;50.924;5.320;2023-07-28T04:34:34;19.10;99.90
25192;DHT22;13143;50.924;5.320;2023-07-28T04:37:00;19.10;99.90
25192;DHT22;13143;50.924;5.320;2023-07-28T04:39:26;19.10;99.90
25192;DHT22;13143;50.924;5.320;2023-07-28T04:41:52;19.10;99.90
25192;DHT22;13143;50.924;5.320;2023-07-28T04:44:18;19.10;99.90
25192;DHT22;13143;50.924;5.320;2023-07-28T04:46:46;19.10;99.90
25192;DHT22;13143;50.924;5.320;2023-07-28T04:49:14;19.10;99.90
25192;DHT22;13143;50.924;5.320;2023-07-28T04:51:41;19.10;99.90
25192;DHT22;13143;50.924;5.320;2023-07-28T04:54:07;19.10;99.90
25192;DHT22;13143;50.924;5.320;2023-07-28T04:56:33;19.10;99.90
25192;DHT22;13143;50.924;5.320;2023-07-28T04:58:59;19.10;99.90
25192;DHT22;13143;50.924;5.320;2023-07-28T05:01:25;19.10;99.90
25192;DHT22;13143;50.924;5.320;2023-07-28T05:03:51;19.10;99.90
25192;DHT22;13143;50.924;5.320;2023-07-28T05:06:17;19.10;99.90
25192;DHT22;13143;50.924;5.320;2023-07-28T05:08:44;19.10;99.90
25192;DHT22;13143;50.924;5.320;2023-07-28T05:11:10;19.10;99.90
25192;DHT22;13143;50.924;5.320;2023-07-28T05:13:36;19.10;99.90
25192;DHT22;13143;50.924;5.320;2023-07-28T05:16:02;19.10;99.90
25192;DHT22;13143;50.924;5.320;2023-07-28T05:18:28;19.10;99.90
25192;DHT22;13143;50.924;5.320;2023-07-28T05:20:54;19.10;99.90
25192;DHT22;13143;50.924;5.320;2023-07-28T05:23:21;19.10;99.90
25192;DHT22;13143;50.924;5.320;2023-07-28T05:25:47;19.10;99.90
25192;DHT22;13143;50.924;5.320;2023-07-28T05:28:13;19.10;99.90
25192;DHT22;13143;50.924;5.320;2023-07-28T05:30:39;19.10;99.90
25192;DHT22;13143;50.924;5.320;2023-07-28T05:33:05;19.10;99.90
25192;DHT22;13143;50.924;5.320;2023-07-28T05:35:32;19.10;99.90
25192;DHT22;13143;50.924;5.320;2023-07-28T05:37:58;19.10;99.90
25192;DHT22;13143;50.924;5.320;2023-07-28T05:40:24;19.20;99.90
25192;DHT22;13143;50.924;5.320;2023-07-28T05:42:50;19.20;99.90
25192;DHT22;13143;50.924;5.320;2023-07-28T05:45:16;19.10;99.90
25192;DHT22;13143;50.924;5.320;2023-07-28T05:47:42;19.20;99.90
25192;DHT22;13143;50.924;5.320;2023-07-28T05:50:09;19.20;99.90
25192;DHT22;13143;50.924;5.320;2023-07-28T05:52:35;19.20;99.90
25192;DHT22;13143;50.924;5.320;2023-07-28T05:55:01;19.20;99.90
25192;DHT22;13143;50.924;5.320;2023-07-28T05:57:27;19.20;99.90
25192;DHT22;13143;50.924;5.320;2023-07-28T05:59:53;19.20;99.90
25192;DHT22;13143;50.924;5.320;2023-07-28T06:02:20;19.20;99.90
25192;DHT22;13143;50.924;5.320;2023-07-28T06:04:46;19.20;99.90
25192;DHT22;13143;50.924;5.320;2023-07-28T06:07:12;19.20;99.90
25192;DHT22;13143;50.924;5.320;2023-07-28T06:09:38;19.20;99.90
25192;DHT22;13143;50.924;5.320;2023-07-28T06:12:05;19.20;99.90
25192;DHT22;13143;50.924;5.320;2023-07-28T06:14:31;19.20;99.90
25192;DHT22;13143;50.924;5.320;2023-07-28T06:16:57;19.20;99.90
25192;DHT22;13143;50.924;5.320;2023-07-28T06:19:23;19.20;99.90
25192;DHT22;13143;50.924;5.320;2023-07-28T06:21:50;19.20;99.90
25192;DHT22;13143;50.924;5.320;2023-07-28T06:24:17;19.30;99.90
25192;DHT22;13143;50.924;5.320;2023-07-28T06:26:43;19.30;99.90
25192;DHT22;13143;50.924;5.320;2023-07-28T06:29:09;19.30;99.90
25192;DHT22;13143;50.924;5.320;2023-07-28T06:31:36;19.30;99.90
25192;DHT22;13143;50.924;5.320;2023-07-28T06:34:02;19.30;99.90
25192;DHT22;13143;50.924;5.320;2023-07-28T06:36:28;19.30;99.90
25192;DHT22;13143;50.924;5.320;2023-07-28T06:38:54;19.30;99.90
25192;DHT22;13143;50.924;5.320;2023-07-28T06:41:21;19.30;99.90
25192;DHT22;13143;50.924;5.320;2023-07-28T06:43:48;19.30;99.90
25192;DHT22;13143;50.924;5.320;2023-07-28T06:46:17;19.30;99.90
25192;DHT22;13143;50.924;5.320;2023-07-28T06:48:43;19.30;99.90
25192;DHT22;13143;50.924;5.320;2023-07-28T06:51:09;19.40;99.90
25192;DHT22;13143;50.924;5.320;2023-07-28T06:53:35;19.30;99.90
25192;DHT22;13143;50.924;5.320;2023-07-28T06:56:01;19.40;99.90
25192;DHT22;13143;50.924;5.320;2023-07-28T06:58:27;19.40;99.90
25192;DHT22;13143;50.924;5.320;2023-07-28T07:00:53;19.40;99.90
25192;DHT22;13143;50.924;5.320;2023-07-28T07:03:22;19.40;99.90
25192;DHT22;13143;50.924;5.320;2023-07-28T07:05:49;19.40;99.90
25192;DHT22;13143;50.924;5.320;2023-07-28T07:08:16;19.40;99.90
25192;DHT22;13143;50.924;5.320;2023-07-28T07:10:49;19.40;99.90
25192;DHT22;13143;50.924;5.320;2023-07-28T07:13:19;19.40;99.90
25192;DHT22;13143;50.924;5.320;2023-07-28T07:15:45;19.50;99.90
25192;DHT22;13143;50.924;5.320;2023-07-28T07:18:12;19.50;99.90
25192;DHT22;13143;50.924;5.320;2023-07-28T07:20:38;19.50;99.90
25192;DHT22;13143;50.924;5.320;2023-07-28T07:23:05;19.50;99.90
25192;DHT22;13143;50.924;5.320;2023-07-28T07:25:31;19.50;99.90
25192;DHT22;13143;50.924;5.320;2023-07-28T07:27:57;19.60;99.90
25192;DHT22;13143;50.924;5.320;2023-07-28T07:30:23;19.60;99.90
25192;DHT22;13143;50.924;5.320;2023-07-28T07:32:50;19.60;99.90
25192;DHT22;13143;50.924;5.320;2023-07-28T07:35:16;19.60;99.90
25192;DHT22;13143;50.924;5.320;2023-07-28T07:37:42;19.60;99.90
25192;DHT22;13143;50.924;5.320;2023-07-28T07:40:09;19.60;99.90
25192;DHT22;13143;50.924;5.320;2023-07-28T07:42:44;19.70;99.90
25192;DHT22;13143;50.924;5.320;2023-07-28T07:45:12;19.70;99.90
25192;DHT22;13143;50.924;5.320;2023-07-28T07:47:39;19.70;99.90
25192;DHT22;13143;50.924;5.320;2023-07-28T07:50:07;19.70;99.90
25192;DHT22;13143;50.924;5.320;2023-07-28T07:52:35;19.70;99.90
25192;DHT22;13143;50.924;5.320;2023-07-28T07:55:02;19.70;99.90
25192;DHT22;13143;50.924;5.320;2023-07-28T07:57:29;19.80;99.90
25192;DHT22;13143;50.924;5.320;2023-07-28T07:59:57;19.80;99.90
25192;DHT22;13143;50.924;5.320;2023-07-28T08:02:24;19.80;99.90
25192;DHT22;13143;50.924;5.320;2023-07-28T08:04:52;19.80;99.90
25192;DHT22;13143;50.924;5.320;2023-07-28T08:07:19;19.90;99.90
25192;DHT22;13143;50.924;5.320;2023-07-28T08:09:45;19.90;99.90
25192;DHT22;13143;50.924;5.320;2023-07-28T08:12:12;19.90;99.90
25192;DHT22;13143;50.924;5.320;2023-07-28T08:14:38;19.90;99.90
25192;DHT22;13143;50.924;5.320;2023-07-28T08:17:05;19.90;99.90
25192;DHT22;13143;50.924;5.320;2023-07-28T08:19:31;20.00;99.90
25192;DHT22;13143;50.924;5.320;2023-07-28T08:21:57;20.00;99.90
25192;DHT22;13143;50.924;5.320;2023-07-28T08:24:23;20.00;99.90
25192;DHT22;13143;50.924;5.320;2023-07-28T08:26:49;20.00;99.90
25192;DHT22;13143;50.924;5.320;2023-07-28T08:29:16;20.10;99.90
25192;DHT22;13143;50.924;5.320;2023-07-28T08:31:42;20.10;99.90
25192;DHT22;13143;50.924;5.320;2023-07-28T08:34:08;20.10;99.90
25192;DHT22;13143;50.924;5.320;2023-07-28T08:36:34;20.10;99.90
25192;DHT22;13143;50.924;5.320;2023-07-28T08:39:00;20.10;99.90
25192;DHT22;13143;50.924;5.320;2023-07-28T08:41:26;20.20;99.90
25192;DHT22;13143;50.924;5.320;2023-07-28T08:43:53;20.20;99.90
25192;DHT22;13143;50.924;5.320;2023-07-28T08:46:20;20.20;99.90
25192;DHT22;13143;50.924;5.320;2023-07-28T08:48:46;20.20;99.90
25192;DHT22;13143;50.924;5.320;2023-07-28T08:51:13;20.20;99.90
25192;DHT22;13143;50.924;5.320;2023-07-28T08:53:40;20.20;99.90
25192;DHT22;13143;50.924;5.320;2023-07-28T08:56:06;20.20;99.90
25192;DHT22;13143;50.924;5.320;2023-07-28T08:58:33;20.30;99.90
25192;DHT22;13143;50.924;5.320;2023-07-28T09:00:59;20.30;99.90
25192;DHT22;13143;50.924;5.320;2023-07-28T09:03:29;20.30;99.90
25192;DHT22;13143;50.924;5.320;2023-07-28T09:06:00;20.30;99.90
25192;DHT22;13143;50.924;5.320;2023-07-28T09:08:27;20.40;99.90
25192;DHT22;13143;50.924;5.320;2023-07-28T09:10:53;20.40;99.90
25192;DHT22;13143;50.924;5.320;2023-07-28T09:13:22;20.40;99.90
25192;DHT22;13143;50.924;5.320;2023-07-28T09:15:49;20.40;99.90
25192;DHT22;13143;50.924;5.320;2023-07-28T09:18:17;20.40;99.90
25192;DHT22;13143;50.924;5.320;2023-07-28T09:20:43;20.50;99.90
25192;DHT22;13143;50.924;5.320;2023-07-28T09:23:14;20.50;99.90
25192;DHT22;13143;50.924;5.320;2023-07-28T09:25:41;20.50;99.90
25192;DHT22;13143;50.924;5.320;2023-07-28T09:28:07;20.50;99.90
25192;DHT22;13143;50.924;5.320;2023-07-28T09:38:31;20.50;99.90
25192;DHT22;13143;50.924;5.320;2023-07-28T09:40:57;20.40;99.90
25192;DHT22;13143;50.924;5.320;2023-07-28T09:43:24;20.40;99.90
25192;DHT22;13143;50.924;5.320;2023-07-28T09:45:50;20.40;99.90
25192;DHT22;13143;50.924;5.320;2023-07-28T09:48:17;20.40;99.90
25192;DHT22;13143;50.924;5.320;2023-07-28T09:50:44;20.50;99.90
25192;DHT22;13143;50.924;5.320;2023-07-28T09:53:12;20.50;99.90
25192;DHT22;13143;50.924;5.320;2023-07-28T09:55:40;20.60;99.90
25192;DHT22;13143;50.924;5.320;2023-07-28T09:58:10;20.60;99.90
25192;DHT22;13143;50.924;5.320;2023-07-28T10:00:38;20.60;99.90
25192;DHT22;13143;50.924;5.320;2023-07-28T10:03:04;20.70;99.90
25192;DHT22;13143;50.924;5.320;2023-07-28T10:05:32;20.70;99.90
25192;DHT22;13143;50.924;5.320;2023-07-28T10:08:00;20.70;99.90
25192;DHT22;13143;50.924;5.320;2023-07-28T10:10:27;20.70;99.90
25192;DHT22;13143;50.924;5.320;2023-07-28T10:12:54;20.70;99.90
25192;DHT22;13143;50.924;5.320;2023-07-28T10:15:29;20.70;99.90
25192;DHT22;13143;50.924;5.320;2023-07-28T10:17:57;20.70;99.90
25192;DHT22;13143;50.924;5.320;2023-07-28T10:22:54;20.80;99.90
25192;DHT22;13143;50.924;5.320;2023-07-28T10:25:25;20.80;99.90
25192;DHT22;13143;50.924;5.320;2023-07-28T10:27:51;20.80;99.90
25192;DHT22;13143;50.924;5.320;2023-07-28T10:30:18;20.80;99.90
25192;DHT22;13143;50.924;5.320;2023-07-28T10:32:48;20.80;99.90
25192;DHT22;13143;50.924;5.320;2023-07-28T10:35:23;20.80;99.90
25192;DHT22;13143;50.924;5.320;2023-07-28T10:37:49;20.80;99.90
25192;DHT22;13143;50.924;5.320;2023-07-28T10:40:35;20.80;99.90
25192;DHT22;13143;50.924;5.320;2023-07-28T10:43:03;20.80;99.90
25192;DHT22;13143;50.924;5.320;2023-07-28T10:45:32;20.80;99.90
25192;DHT22;13143;50.924;5.320;2023-07-28T10:47:59;20.80;99.90
25192;DHT22;13143;50.924;5.320;2023-07-28T10:50:27;20.90;99.90
25192;DHT22;13143;50.924;5.320;2023-07-28T10:52:54;20.90;99.90
25192;DHT22;13143;50.924;5.320;2023-07-28T10:55:25;20.90;99.90
25192;DHT22;13143;50.924;5.320;2023-07-28T10:57:53;20.90;99.90
25192;DHT22;13143;50.924;5.320;2023-07-28T11:00:20;20.90;99.90
25192;DHT22;13143;50.924;5.320;2023-07-28T11:02:52;20.90;99.90
25192;DHT22;13143;50.924;5.320;2023-07-28T11:05:21;21.00;99.90
25192;DHT22;13143;50.924;5.320;2023-07-28T11:07:49;21.00;99.90
25192;DHT22;13143;50.924;5.320;2023-07-28T11:10:16;21.00;99.90
25192;DHT22;13143;50.924;5.320;2023-07-28T11:12:44;21.00;99.90
25192;DHT22;13143;50.924;5.320;2023-07-28T11:15:12;21.00;99.90
25192;DHT22;13143;50.924;5.320;2023-07-28T11:17:40;21.00;99.90
25192;DHT22;13143;50.924;5.320;2023-07-28T11:20:26;21.10;99.90
25192;DHT22;13143;50.924;5.320;2023-07-28T11:22:56;21.10;99.90
25192;DHT22;13143;50.924;5.320;2023-07-28T11:25:24;21.10;99.90
25192;DHT22;13143;50.924;5.320;2023-07-28T11:27:51;21.10;99.90
25192;DHT22;13143;50.924;5.320;2023-07-28T11:30:18;21.10;99.90
25192;DHT22;13143;50.924;5.320;2023-07-28T11:32:47;21.10;99.90
25192;DHT22;13143;50.924;5.320;2023-07-28T11:35:16;21.10;99.90
25192;DHT22;13143;50.924;5.320;2023-07-28T11:37:44;21.10;99.90
25192;DHT22;13143;50.924;5.320;2023-07-28T11:40:15;21.20;99.90
25192;DHT22;13143;50.924;5.320;2023-07-28T11:45:13;21.20;99.90
25192;DHT22;13143;50.924;5.320;2023-07-28T11:47:40;21.20;99.90
25192;DHT22;13143;50.924;5.320;2023-07-28T11:50:22;21.20;99.90
25192;DHT22;13143;50.924;5.320;2023-07-28T11:52:48;21.30;99.90
25192;DHT22;13143;50.924;5.320;2023-07-28T11:55:15;21.30;99.90
25192;DHT22;13143;50.924;5.320;2023-07-28T11:57:43;21.20;99.90
25192;DHT22;13143;50.924;5.320;2023-07-28T12:00:10;21.30;99.90
25192;DHT22;13143;50.924;5.320;2023-07-28T12:02:38;21.30;99.90
25192;DHT22;13143;50.924;5.320;2023-07-28T12:05:12;21.30;99.90
25192;DHT22;13143;50.924;5.320;2023-07-28T12:07:38;21.30;99.90
25192;DHT22;13143;50.924;5.320;2023-07-28T12:10:07;21.30;99.90
25192;DHT22;13143;50.924;5.320;2023-07-28T12:12:46;21.30;99.90
25192;DHT22;13143;50.924;5.320;2023-07-28T12:18:15;21.40;99.90
25192;DHT22;13143;50.924;5.320;2023-07-28T12:20:50;21.40;99.90
25192;DHT22;13143;50.924;5.320;2023-07-28T12:23:18;21.40;99.90
25192;DHT22;13143;50.924;5.320;2023-07-28T12:25:45;21.40;99.90
25192;DHT22;13143;50.924;5.320;2023-07-28T12:28:12;21.40;99.90
25192;DHT22;13143;50.924;5.320;2023-07-28T12:30:38;21.30;99.90
25192;DHT22;13143;50.924;5.320;2023-07-28T12:33:05;21.40;99.90
25192;DHT22;13143;50.924;5.320;2023-07-28T12:35:33;21.40;99.90
25192;DHT22;13143;50.924;5.320;2023-07-28T12:38:09;21.30;99.90
25192;DHT22;13143;50.924;5.320;2023-07-28T12:40:35;21.40;99.90
25192;DHT22;13143;50.924;5.320;2023-07-28T12:43:02;21.40;99.90
25192;DHT22;13143;50.924;5.320;2023-07-28T12:45:29;21.40;99.90
25192;DHT22;13143;50.924;5.320;2023-07-28T12:47:55;21.40;99.90
25192;DHT22;13143;50.924;5.320;2023-07-28T12:50:22;21.40;99.90
25192;DHT22;13143;50.924;5.320;2023-07-28T12:52:50;21.40;99.90
25192;DHT22;13143;50.924;5.320;2023-07-28T12:55:17;21.40;99.90
25192;DHT22;13143;50.924;5.320;2023-07-28T12:57:43;21.40;99.90
25192;DHT22;13143;50.924;5.320;2023-07-28T13:00:10;21.40;99.90
25192;DHT22;13143;50.924;5.320;2023-07-28T13:02:40;21.40;99.90
25192;DHT22;13143;50.924;5.320;2023-07-28T13:05:07;21.50;99.90
25192;DHT22;13143;50.924;5.320;2023-07-28T13:07:36;21.50;99.90
25192;DHT22;13143;50.924;5.320;2023-07-28T13:10:04;21.50;99.90
25192;DHT22;13143;50.924;5.320;2023-07-28T13:12:30;21.50;99.90
25192;DHT22;13143;50.924;5.320;2023-07-28T13:14:56;21.50;99.90
25192;DHT22;13143;50.924;5.320;2023-07-28T13:17:22;21.50;99.90
25192;DHT22;13143;50.924;5.320;2023-07-28T13:19:48;21.50;99.90
25192;DHT22;13143;50.924;5.320;2023-07-28T13:22:14;21.60;99.90
25192;DHT22;13143;50.924;5.320;2023-07-28T13:24:40;21.60;99.90
25192;DHT22;13143;50.924;5.320;2023-07-28T13:27:07;21.60;99.90
25192;DHT22;13143;50.924;5.320;2023-07-28T13:29:33;21.50;99.90
25192;DHT22;13143;50.924;5.320;2023-07-28T13:31:59;21.60;99.90
25192;DHT22;13143;50.924;5.320;2023-07-28T13:34:26;21.60;99.90
25192;DHT22;13143;50.924;5.320;2023-07-28T13:36:54;21.60;99.90
25192;DHT22;13143;50.924;5.320;2023-07-28T13:39:21;21.60;99.90
25192;DHT22;13143;50.924;5.320;2023-07-28T13:41:47;21.60;99.90
25192;DHT22;13143;50.924;5.320;2023-07-28T13:44:13;21.60;99.90
25192;DHT22;13143;50.924;5.320;2023-07-28T13:46:40;21.60;99.90
25192;DHT22;13143;50.924;5.320;2023-07-28T13:49:06;21.70;99.90
25192;DHT22;13143;50.924;5.320;2023-07-28T13:51:32;21.70;99.90
25192;DHT22;13143;50.924;5.320;2023-07-28T13:53:58;21.70;99.90
25192;DHT22;13143;50.924;5.320;2023-07-28T13:59:00;21.70;99.90
25192;DHT22;13143;50.924;5.320;2023-07-28T14:01:26;21.80;99.90
25192;DHT22;13143;50.924;5.320;2023-07-28T14:03:52;21.80;99.90
25192;DHT22;13143;50.924;5.320;2023-07-28T14:06:19;21.80;99.90
25192;DHT22;13143;50.924;5.320;2023-07-28T14:08:45;21.80;99.90
25192;DHT22;13143;50.924;5.320;2023-07-28T14:11:11;21.80;99.90
25192;DHT22;13143;50.924;5.320;2023-07-28T14:13:38;21.90;99.90
25192;DHT22;13143;50.924;5.320;2023-07-28T14:16:04;21.90;99.90
25192;DHT22;13143;50.924;5.320;2023-07-28T14:18:30;21.90;99.90
25192;DHT22;13143;50.924;5.320;2023-07-28T14:20:56;21.90;99.90
25192;DHT22;13143;50.924;5.320;2023-07-28T14:23:24;22.00;99.90
25192;DHT22;13143;50.924;5.320;2023-07-28T14:25:51;22.00;99.90
25192;DHT22;13143;50.924;5.320;2023-07-28T14:28:17;22.00;99.90
25192;DHT22;13143;50.924;5.320;2023-07-28T14:30:44;22.00;99.90
25192;DHT22;13143;50.924;5.320;2023-07-28T14:33:14;22.00;99.90
25192;DHT22;13143;50.924;5.320;2023-07-28T14:35:42;22.10;99.90
25192;DHT22;13143;50.924;5.320;2023-07-28T14:38:09;22.20;99.90
25192;DHT22;13143;50.924;5.320;2023-07-28T14:40:36;22.20;99.90
25192;DHT22;13143;50.924;5.320;2023-07-28T14:43:03;22.20;99.90
25192;DHT22;13143;50.924;5.320;2023-07-28T14:45:30;22.20;99.90
25192;DHT22;13143;50.924;5.320;2023-07-28T14:47:56;22.30;99.90
25192;DHT22;13143;50.924;5.320;2023-07-28T14:50:22;22.30;99.90
25192;DHT22;13143;50.924;5.320;2023-07-28T14:52:49;22.30;99.90
25192;DHT22;13143;50.924;5.320;2023-07-28T14:55:15;22.30;99.90
25192;DHT22;13143;50.924;5.320;2023-07-28T14:57:41;22.40;99.90
25192;DHT22;13143;50.924;5.320;2023-07-28T15:00:08;22.40;99.90
25192;DHT22;13143;50.924;5.320;2023-07-28T15:02:35;22.40;99.90
25192;DHT22;13143;50.924;5.320;2023-07-28T15:05:04;22.40;99.90
25192;DHT22;13143;50.924;5.320;2023-07-28T15:07:31;22.50;99.90
25192;DHT22;13143;50.924;5.320;2023-07-28T15:09:57;22.50;99.90
25192;DHT22;13143;50.924;5.320;2023-07-28T15:12:23;22.50;99.90
25192;DHT22;13143;50.924;5.320;2023-07-28T15:14:49;22.50;99.90
25192;DHT22;13143;50.924;5.320;2023-07-28T15:17:15;22.50;99.90
25192;DHT22;13143;50.924;5.320;2023-07-28T15:19:41;22.60;99.90
25192;DHT22;13143;50.924;5.320;2023-07-28T15:22:07;22.60;99.90
25192;DHT22;13143;50.924;5.320;2023-07-28T15:24:34;22.70;99.90
25192;DHT22;13143;50.924;5.320;2023-07-28T15:27:00;22.70;99.90
25192;DHT22;13143;50.924;5.320;2023-07-28T15:29:26;22.70;99.90
25192;DHT22;13143;50.924;5.320;2023-07-28T15:31:52;22.70;99.90
25192;DHT22;13143;50.924;5.320;2023-07-28T15:34:19;22.70;99.90
25192;DHT22;13143;50.924;5.320;2023-07-28T15:36:46;22.70;99.90
25192;DHT22;13143;50.924;5.320;2023-07-28T15:39:12;22.80;99.90
25192;DHT22;13143;50.924;5.320;2023-07-28T15:41:38;22.80;99.90
25192;DHT22;13143;50.924;5.320;2023-07-28T15:44:05;22.80;99.90
25192;DHT22;13143;50.924;5.320;2023-07-28T15:46:31;22.80;99.90
25192;DHT22;13143;50.924;5.320;2023-07-28T15:48:57;22.80;99.90
25192;DHT22;13143;50.924;5.320;2023-07-28T15:51:23;22.90;99.90